createdAt,value
2022-12-25T00:03:07.987Z,2.40
2022-12-25T00:08:10.080Z,2.67
2022-12-25T00:13:11.972Z,2.40
2022-12-25T00:18:13.869Z,2.00
2022-12-25T00:23:15.714Z,2.33
2022-12-25T00:28:17.856Z,1.73
2022-12-25T00:33:19.738Z,1.90
2022-12-25T00:38:21.601Z,2.75
2022-12-25T00:43:23.516Z,1.90
2022-12-25T00:48:26.547Z,1.92
2022-12-25T00:53:29.166Z,1.92
2022-12-25T00:58:32.892Z,2.10
2022-12-25T01:03:34.820Z,2.30
2022-12-25T01:08:38.841Z,2.15
2022-12-25T01:13:40.673Z,2.75
2022-12-25T01:18:43.449Z,2.60
2022-12-25T01:23:45.335Z,2.08
2022-12-25T01:28:47.372Z,2.95
2022-12-25T01:33:49.692Z,2.55
2022-12-25T01:38:52.935Z,2.10
2022-12-25T01:44:00.811Z,2.17
2022-12-25T01:49:07.279Z,1.80
2022-12-25T01:54:16.233Z,2.00
2022-12-25T01:59:21.366Z,2.50
2022-12-25T02:04:41.365Z,2.75
2022-12-25T02:09:43.845Z,2.47
2022-12-25T02:14:48.483Z,2.22
2022-12-25T02:20:27.649Z,1.85
2022-12-25T02:25:38.216Z,1.77
2022-12-25T02:30:47.118Z,1.90
2022-12-25T02:35:53.442Z,2.33
2022-12-25T02:41:07.473Z,2.65
2022-12-25T02:46:33.234Z,2.17
2022-12-25T02:51:57.584Z,1.95
2022-12-25T02:57:24.703Z,2.20
2022-12-25T03:02:47.630Z,2.28
2022-12-25T03:07:50.057Z,2.28
2022-12-25T03:12:53.952Z,2.08
2022-12-25T03:17:59.364Z,2.55
2022-12-25T03:23:20.631Z,2.05
2022-12-25T03:28:22.500Z,2.53
2022-12-25T03:34:03.709Z,2.05
2022-12-25T03:45:11.863Z,1.85
2022-12-25T03:51:08.117Z,2.35
2022-12-25T03:56:29.496Z,2.03
2022-12-25T04:01:50.275Z,2.15
2022-12-25T04:07:10.799Z,2.30
2022-12-25T04:17:51.485Z,2.03
2022-12-25T04:23:12.075Z,2.00
2022-12-25T04:28:32.881Z,2.67
2022-12-25T04:33:53.541Z,1.92
2022-12-25T04:38:55.357Z,2.30
2022-12-25T04:43:57.153Z,1.85
2022-12-25T04:48:59.012Z,2.97
2022-12-25T04:54:00.835Z,2.22
2022-12-25T04:59:02.671Z,1.90
2022-12-25T05:04:04.656Z,1.75
2022-12-25T05:09:06.909Z,2.25
2022-12-25T05:14:08.735Z,2.25
2022-12-25T05:19:11.050Z,2.10
2022-12-25T05:24:12.923Z,1.98
2022-12-25T05:29:14.722Z,1.00
2022-12-25T05:34:16.601Z,2.10
2022-12-25T05:39:18.625Z,2.40
2022-12-25T05:44:20.449Z,2.33
2022-12-25T05:49:22.354Z,1.67
2022-12-25T05:54:24.242Z,2.00
2022-12-25T05:59:28.642Z,1.67
2022-12-25T06:04:30.563Z,1.75
2022-12-25T06:09:32.449Z,2.33
2022-12-25T06:14:36.788Z,1.70
2022-12-25T06:19:38.712Z,1.90
2022-12-25T06:24:41.246Z,1.73
2022-12-25T06:29:43.081Z,2.30
2022-12-25T06:34:45.116Z,2.75
2022-12-25T06:39:48.145Z,1.75
2022-12-25T06:44:51.148Z,2.33
2022-12-25T06:49:52.954Z,1.70
2022-12-25T06:54:54.803Z,1.65
2022-12-25T06:59:56.716Z,1.50
2022-12-25T07:05:00.177Z,2.20
2022-12-25T07:10:02.139Z,2.00
2022-12-25T07:15:04.461Z,2.08
2022-12-25T07:20:07.129Z,2.05
2022-12-25T07:25:09.064Z,1.90
2022-12-25T07:30:11.542Z,1.98
2022-12-25T07:35:13.421Z,1.75
2022-12-25T07:40:15.443Z,2.25
2022-12-25T07:45:17.407Z,2.28
2022-12-25T07:50:19.531Z,1.85
2022-12-25T07:55:21.464Z,1.95
2022-12-25T08:00:23.389Z,2.08
2022-12-25T08:05:25.280Z,1.77
2022-12-25T08:10:27.107Z,2.15
2022-12-25T08:15:30.905Z,1.98
2022-12-25T08:20:33.856Z,1.95
2022-12-25T08:25:35.755Z,1.73
2022-12-25T08:30:41.605Z,1.80
2022-12-25T08:35:44.190Z,1.85
2022-12-25T08:40:46.694Z,2.08
2022-12-25T08:45:49.307Z,2.45
2022-12-25T08:50:52.937Z,3.25
2022-12-25T08:56:04.603Z,3.38
2022-12-25T09:01:07.533Z,3.30
2022-12-25T09:06:12.631Z,6.43
2022-12-25T09:11:15.751Z,1.88
2022-12-25T09:16:20.774Z,2.30
2022-12-25T09:21:22.960Z,1.95
2022-12-25T09:26:25.042Z,2.30
2022-12-25T09:31:27.014Z,1.83
2022-12-25T09:36:29.374Z,2.17
2022-12-25T09:41:46.162Z,2.30
2022-12-25T09:46:54.074Z,2.67
2022-12-25T09:52:05.151Z,2.33
2022-12-25T09:57:12.205Z,2.33
2022-12-25T10:02:45.160Z,2.30
2022-12-25T10:07:53.312Z,2.65
2022-12-25T10:13:22.641Z,1.95
2022-12-25T10:19:10.184Z,4.07
2022-12-25T10:24:36.924Z,2.95
2022-12-25T10:29:39.853Z,3.03
2022-12-25T10:34:43.704Z,2.97
2022-12-25T10:39:46.829Z,2.97
2022-12-25T10:44:59.736Z,3.20
2022-12-25T10:50:12.054Z,2.38
2022-12-25T10:55:23.531Z,2.78
2022-12-25T11:00:32.130Z,2.38
2022-12-25T11:05:37.180Z,2.20
2022-12-25T11:10:44.236Z,2.95
2022-12-25T11:15:49.675Z,2.50
2022-12-25T11:20:58.361Z,3.10
2022-12-25T11:26:06.027Z,3.35
2022-12-25T11:31:13.247Z,3.08
2022-12-25T11:36:35.116Z,2.53
2022-12-25T11:41:39.004Z,2.55
2022-12-25T11:46:46.202Z,2.25
2022-12-25T11:51:51.690Z,2.10
2022-12-25T11:56:55.979Z,3.50
2022-12-25T12:02:26.068Z,2.35
2022-12-25T12:07:32.448Z,2.60
2022-12-25T12:12:55.887Z,2.78
2022-12-25T12:18:22.397Z,3.15
2022-12-25T12:23:24.432Z,3.25
2022-12-25T12:28:29.252Z,2.83
2022-12-25T12:33:36.959Z,3.03
2022-12-25T12:38:41.094Z,3.45
2022-12-25T12:43:57.289Z,4.00
2022-12-25T12:49:24.247Z,4.32
2022-12-25T12:54:27.997Z,3.90
2022-12-25T12:59:48.739Z,4.68
2022-12-25T13:05:14.185Z,4.30
2022-12-25T13:10:38.063Z,4.90
2022-12-25T13:15:40.084Z,5.93
2022-12-25T13:20:54.852Z,4.20
2022-12-25T13:25:59.892Z,4.00
2022-12-25T13:31:05.685Z,3.83
2022-12-25T13:36:12.939Z,3.92
2022-12-25T13:41:43.491Z,4.22
2022-12-25T13:46:45.766Z,3.58
2022-12-25T13:51:48.769Z,4.45
2022-12-25T13:56:53.883Z,10.82
2022-12-25T14:01:57.963Z,3.90
2022-12-25T14:07:10.297Z,5.82
2022-12-25T14:12:19.119Z,4.07
2022-12-25T14:17:23.130Z,3.72
2022-12-25T14:22:26.249Z,4.40
2022-12-25T14:27:30.685Z,3.88
2022-12-25T14:32:43.319Z,4.35
2022-12-25T14:37:45.824Z,4.05
2022-12-25T14:43:02.155Z,3.92
2022-12-25T14:48:24.426Z,5.03
2022-12-25T14:53:34.460Z,4.78
2022-12-25T14:58:43.507Z,4.17
2022-12-25T15:03:45.371Z,2.88
2022-12-25T15:09:02.996Z,3.55
2022-12-25T15:14:04.932Z,3.15
2022-12-25T15:19:08.818Z,2.88
2022-12-25T15:24:13.529Z,3.17
2022-12-25T15:29:15.390Z,3.60
2022-12-25T15:34:21.059Z,3.78
2022-12-25T15:39:22.962Z,3.80
2022-12-25T15:44:25.445Z,4.25
2022-12-25T15:49:27.305Z,3.88
2022-12-25T15:54:29.745Z,3.58
2022-12-25T15:59:32.353Z,3.63
2022-12-25T16:04:34.535Z,3.60
2022-12-25T16:09:36.501Z,2.92
2022-12-25T16:14:38.366Z,4.10
2022-12-25T16:19:41.857Z,3.85
2022-12-25T16:24:43.683Z,4.10
2022-12-25T16:29:45.565Z,3.42
2022-12-25T16:34:49.182Z,3.05
2022-12-25T16:39:51.012Z,4.35
2022-12-25T16:44:52.963Z,4.18
2022-12-25T16:49:54.786Z,3.53
2022-12-25T16:54:56.600Z,3.42
2022-12-25T16:59:58.539Z,3.70
2022-12-25T17:05:01.100Z,5.70
2022-12-25T17:10:04.236Z,4.47
2022-12-25T17:15:07.986Z,4.55
2022-12-25T17:20:10.238Z,4.15
2022-12-25T17:25:12.356Z,6.07
2022-12-25T17:30:14.600Z,7.57
2022-12-25T17:35:17.886Z,4.03
2022-12-25T17:40:19.720Z,4.00
2022-12-25T17:45:21.754Z,3.72
2022-12-25T17:50:25.644Z,4.18
2022-12-25T17:55:29.347Z,7.43
2022-12-25T18:00:31.444Z,4.72
2022-12-25T18:05:36.389Z,6.43
2022-12-25T18:10:39.958Z,13.30
2022-12-25T18:15:41.873Z,4.40
2022-12-25T18:20:43.762Z,3.90
2022-12-25T18:25:45.687Z,3.30
2022-12-25T18:30:48.435Z,2.75
2022-12-25T18:35:50.862Z,3.33
2022-12-25T18:40:52.738Z,3.03
2022-12-25T18:45:59.462Z,2.75
2022-12-25T18:51:07.389Z,2.67
2022-12-25T18:56:17.698Z,2.85
2022-12-25T19:01:22.557Z,2.30
2022-12-25T19:06:27.249Z,2.92
2022-12-25T19:11:29.120Z,2.60
2022-12-25T19:16:31.240Z,3.30
2022-12-25T19:21:33.132Z,2.80
2022-12-25T19:26:36.062Z,2.45
2022-12-25T19:31:38.369Z,2.95
2022-12-25T19:36:40.740Z,3.67
2022-12-25T19:41:42.668Z,2.88
2022-12-25T19:46:44.581Z,3.22
2022-12-25T19:51:47.101Z,2.60
2022-12-25T19:56:49.505Z,3.17
2022-12-25T20:01:51.919Z,3.63
2022-12-25T20:06:54.071Z,3.88
2022-12-25T20:11:55.994Z,2.88
2022-12-25T20:16:57.906Z,2.72
2022-12-25T20:22:01.190Z,3.25
2022-12-25T20:27:03.214Z,3.67
2022-12-25T20:32:05.619Z,3.05
2022-12-25T20:37:07.713Z,3.33
2022-12-25T20:42:09.803Z,3.75
2022-12-25T20:47:12.418Z,4.35
2022-12-25T20:52:14.314Z,3.28
2022-12-25T20:57:16.157Z,2.90
2022-12-25T21:02:35.379Z,3.17
2022-12-25T21:07:38.295Z,3.20
2022-12-25T21:12:40.147Z,2.90
2022-12-25T21:17:41.963Z,2.53
2022-12-25T21:22:43.890Z,2.63
2022-12-25T21:27:45.723Z,2.60
2022-12-25T21:33:06.174Z,2.55
2022-12-25T21:38:08.045Z,2.38
2022-12-25T21:43:14.268Z,2.22
2022-12-25T21:48:16.138Z,2.60
2022-12-25T21:53:20.969Z,2.55
2022-12-25T21:58:23.014Z,2.50
2022-12-25T22:03:25.095Z,2.38
2022-12-25T22:08:34.106Z,1.92
2022-12-25T22:13:54.473Z,2.00
2022-12-25T22:24:17.141Z,1.58
2022-12-25T22:29:18.966Z,1.40
2022-12-25T22:34:20.848Z,1.25
2022-12-25T22:39:22.702Z,1.20
2022-12-25T22:44:26.314Z,0.98
2022-12-25T22:49:28.172Z,0.95
2022-12-25T22:54:31.678Z,0.88
2022-12-25T22:59:33.997Z,1.20
2022-12-25T23:04:36.059Z,1.42
2022-12-25T23:09:37.980Z,0.75
2022-12-25T23:14:39.846Z,1.08
2022-12-25T23:20:00.612Z,1.02
2022-12-25T23:30:22.600Z,1.23
2022-12-25T23:35:24.461Z,1.10
2022-12-25T23:40:26.316Z,1.67
2022-12-25T23:45:28.136Z,1.02
2022-12-25T23:50:30.008Z,1.35
2022-12-25T23:55:33.694Z,1.65
